SCBA/BBA METAR and TAF weather

Enter ICAO airport designator
Station Type Date Time Source
SCBA METAR 2020/05/29 19:00 UTC NOAA

SCBA 291900Z VRB03KT CAVOK 04/M01 Q1028


Station Type Date Time Source
SCBA Decoded METAR 2020/05/29 19:00 UTC NOAA

Balmaceda, Chile (SCBA) 45-55S 071-41W 520M
May 29, 2020 - 03:00 PM EDT / 2020.05.29 1900 UTC
Wind: Variable at 3 MPH (3 KT):0
Visibility: greater than 7 mile(s):0
Temperature: 39 F (4 C)
Dew Point: 30 F (-1 C)
Relative Humidity: 69%
Pressure (altimeter): 30.36 in. Hg (1028 hPa)
ob: SCBA 291900Z VRB03KT CAVOK 04/M01 Q1028
cycle: 19

Station Type Date Time Source
SCBA TAF 2020/05/29 18:06 UTC NOAA

TAF SCBA 291632Z 2918/3018 30005KT CAVOK TX04/2919Z TNM09/3004Z
BECMG 2920/2922 VRB02KT
BECMG 3012/3014 30008KT

Example: see airport list